AirNav   Duncan Aviation - Near you to keep you flying
 
 462 users online  

0NC7 Lindsay Airport
Madison, North Carolina, USA

GOING TO MADISON?


FAA INFORMATION EFFECTIVE 03 NOVEMBER 2022

Location

FAA Identifier: 0NC7
Lat/Long: 36-21-26.0000N 079-59-51.0000W
36-21.433333N 079-59.850000W
36.3572222,-79.9975000
(estimated)
Elevation: 700 ft. / 213 m (estimated)
From city: 2 miles SW of MADISON, NC
Time zone: UTC -5 (UTC -4 during Daylight Saving Time)
Zip code: 27025

Airport Operations

Airport use: Private use. Permission required prior to landing
Activation date: 01/2004
Control tower: no
ARTCC: ATLANTA CENTER
FSS: RALEIGH FLIGHT SERVICE STATION
Attendance: UNATNDD
Segmented circle: no

Airport Communications

WX AWOS-3 at SIF (9 nm NE): 119.775 (336-573-3677)
WX ASOS at GSO (16 nm S): 128.55 (336-393-0168)
WX AWOS-3 at MTV (16 nm N): 118.45 (276-957-3784)
WX ASOS at INT (17 nm SW): PHONE 336-661-3096

Nearby radio navigation aids

VOR radial/distance  VOR name  Freq  Var
GSOr360/18.7GREENSBORO VORTAC116.2003W
DANr254/(34.3)DANVILLE VOR113.1006W
LIBr333/37.7LIBERTY VORTAC113.0003W

 
NDB name  Hdg/Dist  Freq  Var  ID
SLAMMER270/11.442307WSIF ... .. ..-.
BALES202/14.539607WUV ..- ...-

Airport Services

Runway Information

Runway 3/21

Dimensions: 1700 x 75 ft. / 518 x 23 m
Surface: turf
RUNWAY 3  RUNWAY 21
Traffic pattern: leftleft

Airport Ownership and Management from official FAA records

Ownership: Privately-owned
Owner: BRIGGS NEAL
1361 LINDSAY BRIDGE ROAD
MADISON, NC 27025
Phone 336-548-2223
Manager: BRIGGS NEAL
1361 LINDSAY BRIDGE ROAD
MADISON, NC 27025
Phone 336-548-2223

Additional Remarks

FOR CD CTC ATLANTA ARTCC AT 770-210-7692.

Instrument Procedures

There are no published instrument procedures at 0NC7.

Some nearby airports with instrument procedures:

N63 - Meadow Brook Field Airport (8 nm SW)
KSIF - Rockingham County NC Shiloh Airport (9 nm NE)
KGSO - Piedmont Triad International Airport (16 nm S)
KMTV - Blue Ridge Airport (16 nm N)
KINT - Smith Reynolds Airport (17 nm SW)
 
Loc | Ops | Rwys | IFR | FBO | Links
Com | Nav | Svcs | Stats | Notes
Area around 0NC7 (Lindsay Airport)
 
Road maps at: MapQuest Bing Google
 
Aerial photo
No photo
 
Sectional chart

 
Airport distance calculator
Flying to Lindsay Airport? Find the distance to fly.

From to 0NC7

Sunrise and sunset
Times for 28-Nov-2022
 Local
(UTC-5)
 Zulu
(UTC)
Morning civil twilight06:4311:43
Sunrise07:1112:11
Sunset17:0522:05
Evening civil twilight17:3322:33

Current date and time
Zulu (UTC)  28-Nov-2022 11:02:47
Local (UTC-5)  28-Nov-2022 06:02:47
 
METAR
KSIF 
9nm NE 
281055Z AUTO 00000KT 10SM OVC050 07/06 A2978 RMK AO2 T00650064
KMTV 
16nm N 
281055Z AUTO 23006KT 10SM OVC047 12/03 A2980 RMK AO2 T01150025
KGSO 
16nm S 
281054Z 25005KT 10SM FEW050 FEW250 09/04 A2978 RMK AO2 SLP082 T00890044
KINT 
17nm SW 
281054Z AUTO 25003KT 10SM CLR 12/04 A2980 RMK AO2 SLP085 T01170044
TAF
KGSO 
16nm S 
280523Z 2806/2906 25008KT P6SM SCT025 SCT250 FM281400 30008G16KT P6SM BKN040 FM282200 31006KT P6SM SKC
KINT 
17nm SW 
280523Z 2806/2906 27006KT P6SM SCT025 SCT250 FM281400 30008G16KT P6SM BKN040 FM282200 31006KT P6SM SKC
NOTAMs
Click for the latest NOTAMs
NOTAMs are issued by the DoD/FAA and will open in a separate window not controlled by AirNav.

 

 
 

Would you like to see your business listed on this page?

 If your business provides an interesting product or service to pilots, flight crews, aircraft, or users of the Lindsay Airport, you should consider listing it here.  To start the listing process, click on the button below
 
Add a business
 

Other Pages about Lindsay Airport

Update a link
 
Copyright © AirNav, LLC. All rights reserved. Privacy Policy  Contact